Time;durP1;ratioP1;P1;durP2;ratioP2;P2;SDS_P1;SDS_P2;PMS_P1;PMS_P2;Temp;Humidity;BMP_temperature;BMP_pressure;BME280_temperature;BME280_humidity;BME280_pressure;Samples;Min_cycle;Max_cycle;Signal;HPM_P1;HPM_P2
2023/12/16 00:02:18;;;;;;;1.30;1.30;;;;;;;3.90;84.98;99489.81;4990543;28;20125;-73
2023/12/16 00:04:46;;;;;;;0.85;0.85;;;;;;;3.93;84.01;99497.53;4977073;28;20052;-72
2023/12/16 00:07:13;;;;;;;0.50;0.50;;;;;;;3.97;83.27;99495.50;4983831;28;20408;-73
2023/12/16 00:09:41;;;;;;;1.13;1.13;;;;;;;3.99;83.05;99502.38;4992450;28;20047;-74
2023/12/16 00:12:09;;;;;;;1.00;1.00;;;;;;;4.02;82.70;99502.19;5000861;28;20499;-73
2023/12/16 00:14:39;;;;;;;0.90;0.90;;;;;;;4.08;82.07;99514.09;4986988;28;20515;-73
2023/12/16 00:17:06;;;;;;;0.80;0.80;;;;;;;4.10;81.77;99519.28;4991774;28;20054;-72
2023/12/16 00:19:34;;;;;;;1.02;1.02;;;;;;;4.14;81.44;99528.69;4990458;28;20113;-73
2023/12/16 00:22:02;;;;;;;0.40;0.40;;;;;;;4.09;81.80;99536.06;4990702;28;20419;-73
2023/12/16 00:24:29;;;;;;;1.35;1.35;;;;;;;4.09;81.70;99530.78;4987791;28;20061;-73
2023/12/16 00:26:57;;;;;;;2.03;2.03;;;;;;;4.09;81.87;99530.78;4984151;28;20041;-73
2023/12/16 00:29:24;;;;;;;0.40;0.40;;;;;;;4.09;81.79;99538.72;4992409;28;20392;-73
2023/12/16 00:31:54;;;;;;;1.15;1.15;;;;;;;4.09;81.85;99529.00;4991910;28;20043;-73
2023/12/16 00:34:22;;;;;;;1.10;1.10;;;;;;;4.12;81.70;99534.09;4997461;28;20042;-73
2023/12/16 00:36:49;;;;;;;0.90;0.90;;;;;;;4.14;81.26;99528.69;4991193;28;20049;-72
2023/12/16 00:39:17;;;;;;;0.98;0.98;;;;;;;4.12;81.38;99530.59;4985126;28;20054;-72
2023/12/16 00:41:44;;;;;;;1.05;1.05;;;;;;;4.16;81.23;99529.41;4984190;28;20050;-72
2023/12/16 00:44:12;;;;;;;0.90;0.90;;;;;;;4.15;81.25;99531.25;4994807;28;20045;-73
2023/12/16 00:46:40;;;;;;;0.93;0.93;;;;;;;4.15;81.72;99538.31;4990637;28;20041;-73
2023/12/16 00:49:09;;;;;;;1.10;1.10;;;;;;;4.15;82.07;99538.31;4993378;28;20551;-72
2023/12/16 00:51:36;;;;;;;0.80;0.80;;;;;;;4.12;82.15;99535.88;4987105;28;20100;-72
2023/12/16 00:54:04;;;;;;;1.92;1.92;;;;;;;4.12;82.11;99538.53;5000027;28;20049;-73
2023/12/16 00:56:32;;;;;;;1.02;1.02;;;;;;;4.11;82.44;99548.25;4991033;28;20047;-72
2023/12/16 00:58:59;;;;;;;1.23;1.23;;;;;;;4.12;82.46;99554.38;4987694;28;20046;-72
2023/12/16 01:01:27;;;;;;;0.60;0.60;;;;;;;4.07;82.85;99558.16;4987411;28;20046;-73
2023/12/16 01:03:54;;;;;;;0.90;0.90;;;;;;;4.07;83.05;99563.44;4996661;28;20124;-73
2023/12/16 01:06:24;;;;;;;0.75;0.75;;;;;;;4.09;82.43;99570.44;4989492;28;20117;-73
2023/12/16 01:08:51;;;;;;;1.27;1.27;;;;;;;4.15;82.50;99570.03;4993064;28;20046;-73
2023/12/16 01:11:19;;;;;;;1.00;1.00;;;;;;;4.12;82.22;99565.78;4992305;28;20038;-73
2023/12/16 01:13:47;;;;;;;1.45;1.45;;;;;;;4.16;81.91;99561.97;4990692;28;20057;-73
2023/12/16 01:16:14;;;;;;;1.10;1.10;;;;;;;4.15;82.10;99559.47;4990630;28;20069;-73
2023/12/16 01:18:42;;;;;;;0.90;0.90;;;;;;;4.16;81.95;99550.56;4997545;28;20042;-72
2023/12/16 01:21:10;;;;;;;1.15;1.10;;;;;;;4.15;82.25;99557.66;4986891;28;20105;-73
2023/12/16 01:23:38;;;;;;;1.17;1.17;;;;;;;4.15;82.34;99575.31;4989508;28;20057;-73
2023/12/16 01:26:06;;;;;;;0.88;0.88;;;;;;;4.15;82.27;99572.66;4991400;28;20043;-72
2023/12/16 01:28:35;;;;;;;1.17;1.17;;;;;;;4.12;82.79;99580.78;4985860;28;20050;-73
2023/12/16 01:31:02;;;;;;;1.13;1.13;;;;;;;4.14;82.63;99586.81;4982087;28;20047;-73
2023/12/16 01:33:30;;;;;;;1.08;1.08;;;;;;;4.12;82.96;99586.94;4990455;28;20415;-73
2023/12/16 01:35:58;;;;;;;1.10;1.10;;;;;;;4.14;82.47;99589.47;4992394;28;20046;-74
2023/12/16 01:38:25;;;;;;;0.95;0.95;;;;;;;4.14;82.77;99586.81;4995514;28;20049;-73
2023/12/16 01:40:54;;;;;;;1.10;1.10;;;;;;;4.12;82.94;99594.00;4985770;28;20472;-73
2023/12/16 01:43:22;;;;;;;1.10;1.10;;;;;;;4.14;82.84;99594.75;4992172;28;20050;-74
2023/12/16 01:45:55;;;;;;;1.13;1.13;;;;;;;4.13;82.63;99583.34;4994342;28;20559;-72
2023/12/16 01:48:22;;;;;;;0.73;0.73;;;;;;;4.13;82.84;99579.84;4997250;28;20046;-73
2023/12/16 01:50:50;;;;;;;1.02;1.02;;;;;;;4.15;82.52;99585.88;4992954;28;20125;-72
2023/12/16 01:53:18;;;;;;;0.98;0.98;;;;;;;4.12;82.69;99576.34;5004571;28;20053;-72
2023/12/16 01:55:45;;;;;;;0.22;0.22;;;;;;;4.15;82.46;99573.50;4986081;28;20503;-71
2023/12/16 01:58:14;;;;;;;0.88;0.88;;;;;;;4.14;82.72;99561.25;4975692;28;20046;-72
2023/12/16 02:00:42;;;;;;;1.25;1.25;;;;;;;4.12;82.77;99564.94;4984580;28;20101;-73
2023/12/16 02:03:10;;;;;;;0.40;0.40;;;;;;;4.12;82.73;99554.38;4990370;28;20407;-72
2023/12/16 02:05:38;;;;;;;1.83;1.83;;;;;;;4.13;82.79;99537.56;4980879;28;20101;-72
2023/12/16 02:08:05;;;;;;;1.00;1.00;;;;;;;4.13;82.53;99542.84;4990275;28;20054;-72
2023/12/16 02:10:33;;;;;;;0.75;0.75;;;;;;;4.12;82.90;99530.59;4999476;28;20046;-72
2023/12/16 02:13:02;;;;;;;1.10;1.10;;;;;;;4.13;82.76;99525.22;4986642;28;20502;-72
2023/12/16 02:15:30;;;;;;;1.13;1.13;;;;;;;4.14;82.87;99526.06;4991939;28;20039;-72
2023/12/16 02:17:58;;;;;;;1.00;1.00;;;;;;;4.14;82.69;99531.34;4993521;28;20053;-73
2023/12/16 02:20:26;;;;;;;1.30;1.30;;;;;;;4.12;82.82;99541.16;4997022;28;20492;-73
2023/12/16 02:22:55;;;;;;;1.13;1.13;;;;;;;4.12;82.97;99542.00;4992757;28;20046;-72
2023/12/16 02:25:24;;;;;;;0.88;0.88;;;;;;;4.14;82.94;99533.97;4989075;28;20066;-72
2023/12/16 02:27:51;;;;;;;1.33;1.33;;;;;;;4.13;83.18;99527.00;4992341;28;20030;-71
2023/12/16 02:30:20;;;;;;;0.93;0.93;;;;;;;4.15;83.04;99525.09;4992507;28;20049;-72
2023/12/16 02:32:48;;;;;;;1.58;1.58;;;;;;;4.12;83.16;99539.38;4992977;28;20038;-72
2023/12/16 02:35:16;;;;;;;0.65;0.65;;;;;;;4.15;83.16;99530.38;4986747;28;20412;-73
2023/12/16 02:37:43;;;;;;;1.23;1.23;;;;;;;4.13;83.12;99535.78;4995042;28;20050;-72
2023/12/16 02:40:12;;;;;;;0.75;0.75;;;;;;;4.10;83.29;99540.41;4992418;28;20512;-73
2023/12/16 02:42:41;;;;;;;0.40;0.40;;;;;;;4.12;83.16;99544.66;4989403;28;20519;-73
2023/12/16 02:45:09;;;;;;;0.90;0.90;;;;;;;4.12;83.13;99538.53;4989361;28;20050;-72
2023/12/16 02:47:37;;;;;;;1.00;1.00;;;;;;;4.12;83.46;99541.16;4995442;28;20488;-73
2023/12/16 02:50:07;;;;;;;0.95;0.95;;;;;;;4.16;83.21;99535.53;4987620;28;20050;-73
2023/12/16 02:52:35;;;;;;;0.80;0.80;;;;;;;4.16;83.12;99550.56;5000146;28;20065;-73
2023/12/16 02:55:02;;;;;;;0.93;0.93;;;;;;;4.16;83.02;99566.41;4993004;28;20042;-74
2023/12/16 02:57:30;;;;;;;1.02;1.02;;;;;;;4.21;82.97;99553.72;4991123;28;20046;-74
2023/12/16 02:59:59;;;;;;;0.30;0.30;;;;;;;4.20;82.73;99542.31;4994230;28;20423;-73
2023/12/16 03:02:26;;;;;;;1.33;1.33;;;;;;;4.20;82.78;99541.47;4987236;28;20052;-74
2023/12/16 03:04:54;;;;;;;1.00;1.00;;;;;;;4.21;82.75;99551.09;4988676;28;20043;-74
2023/12/16 03:07:22;;;;;;;1.40;1.40;;;;;;;4.23;82.29;99535.97;4982791;28;20102;-73
2023/12/16 03:09:49;;;;;;;1.00;1.00;;;;;;;4.23;82.21;99541.28;4996685;28;20133;-74
2023/12/16 03:12:17;;;;;;;1.15;1.15;;;;;;;4.25;82.15;99542.84;4996047;28;20569;-73
2023/12/16 03:14:44;;;;;;;0.95;0.95;;;;;;;4.24;82.32;99537.69;4998209;28;20363;-73
2023/12/16 03:17:15;;;;;;;1.42;1.42;;;;;;;4.26;82.36;99539.25;4992876;28;20054;-74
2023/12/16 03:19:43;;;;;;;0.50;0.50;;;;;;;4.27;82.32;99527.72;4993071;28;20455;-73
2023/12/16 03:22:11;;;;;;;0.70;0.70;;;;;;;4.26;82.66;99543.69;4998185;28;20046;-73
2023/12/16 03:24:38;;;;;;;0.75;0.75;;;;;;;4.26;82.31;99535.75;4987026;28;20089;-74
2023/12/16 03:27:06;;;;;;;0.85;0.85;;;;;;;4.28;82.46;99547.06;4992842;28;20069;-74
2023/12/16 03:29:34;;;;;;;1.08;1.08;;;;;;;4.30;82.25;99553.09;4989677;28;20056;-74
2023/12/16 03:32:02;;;;;;;1.15;1.15;;;;;;;4.28;82.15;99557.63;4999026;28;20050;-74
2023/12/16 03:34:32;;;;;;;1.00;1.00;;;;;;;4.26;82.47;99568.31;4996281;28;20074;-73
2023/12/16 03:37:00;;;;;;;0.75;0.75;;;;;;;4.25;82.61;99574.56;4989554;28;20093;-74
2023/12/16 03:39:28;;;;;;;0.68;0.68;;;;;;;4.27;82.67;99579.72;4991728;28;20046;-73
2023/12/16 03:41:56;;;;;;;1.00;1.00;;;;;;;4.25;82.64;99585.16;5000264;28;20043;-74
2023/12/16 03:44:24;;;;;;;1.20;1.20;;;;;;;4.29;82.58;99585.75;4996627;28;20050;-73
2023/12/16 03:46:51;;;;;;;0.77;0.77;;;;;;;4.28;82.74;99584.91;4995332;28;20045;-72
2023/12/16 03:49:19;;;;;;;0.98;0.98;;;;;;;4.27;82.83;99588.50;4989868;28;20042;-73
2023/12/16 03:51:48;;;;;;;0.88;0.88;;;;;;;4.26;83.11;99592.09;4994636;28;20153;-73
2023/12/16 03:54:16;;;;;;;1.15;1.15;;;;;;;4.27;82.60;99590.28;4996807;28;20081;-73
2023/12/16 03:56:43;;;;;;;1.20;1.20;;;;;;;4.28;82.53;99600.75;4992890;28;20061;-72
2023/12/16 03:59:11;;;;;;;1.00;1.00;;;;;;;4.27;82.68;99607.00;4988071;28;20046;-73
2023/12/16 04:01:44;;;;;;;0.90;0.90;;;;;;;4.28;82.37;99603.41;4991026;28;20077;-73
2023/12/16 04:04:12;;;;;;;1.27;1.27;;;;;;;4.28;82.54;99603.41;4995951;28;20041;-73
2023/12/16 04:06:39;;;;;;;0.88;0.88;;;;;;;4.29;82.60;99601.63;4985321;28;20050;-73
2023/12/16 04:09:09;;;;;;;1.02;1.02;;;;;;;4.28;82.30;99605.19;4991201;28;20050;-74
2023/12/16 04:11:37;;;;;;;1.27;1.27;;;;;;;4.31;82.21;99603.22;4987455;28;20496;-74
2023/12/16 04:14:05;;;;;;;0.25;0.25;;;;;;;4.31;82.29;99605.00;4991468;28;20515;-74
2023/12/16 04:16:32;;;;;;;1.27;1.27;;;;;;;4.38;82.15;99600.97;4994378;28;20052;-73
2023/12/16 04:19:00;;;;;;;0.90;0.90;;;;;;;4.36;82.01;99600.25;4989449;28;21151;-73
2023/12/16 04:21:28;;;;;;;0.45;0.45;;;;;;;4.34;82.06;99608.28;4990648;28;20452;-74
2023/12/16 04:23:55;;;;;;;1.00;1.00;;;;;;;4.32;82.09;99610.19;4990499;28;20573;-73
2023/12/16 04:26:24;;;;;;;1.00;1.00;;;;;;;4.34;82.04;99610.09;4996709;28;20051;-74
2023/12/16 04:28:52;;;;;;;1.00;1.00;;;;;;;4.36;82.09;99587.03;4988309;28;20097;-74
2023/12/16 04:31:19;;;;;;;1.48;1.48;;;;;;;4.35;82.08;99588.84;4991493;28;20053;-73
2023/12/16 04:33:48;;;;;;;0.95;0.95;;;;;;;4.34;82.08;99586.31;4988581;28;20041;-74
2023/12/16 04:36:17;;;;;;;1.13;1.13;;;;;;;4.33;82.22;99581.97;4984061;28;20051;-73
2023/12/16 04:38:44;;;;;;;0.98;0.98;;;;;;;4.38;82.41;99585.13;4983276;28;20053;-73
2023/12/16 04:41:12;;;;;;;1.02;1.02;;;;;;;4.34;82.49;99588.94;4986584;28;20132;-74
2023/12/16 04:43:41;;;;;;;1.83;1.83;;;;;;;4.30;82.70;99568.94;4989258;28;20061;-74
2023/12/16 04:46:09;;;;;;;1.35;1.35;;;;;;;4.29;82.62;99577.81;4990953;28;20120;-74
2023/12/16 04:48:37;;;;;;;1.10;1.10;;;;;;;4.28;82.89;99589.34;4991572;28;20050;-73
2023/12/16 04:51:05;;;;;;;1.23;1.23;;;;;;;4.32;82.58;99582.91;4996913;28;20046;-74
2023/12/16 04:53:33;;;;;;;0.75;0.75;;;;;;;4.29;82.69;99577.81;4989376;28;20197;-71
2023/12/16 04:56:01;;;;;;;1.20;1.20;;;;;;;4.28;82.56;99599.91;4990266;28;20515;-72
2023/12/16 04:58:29;;;;;;;1.13;1.13;;;;;;;4.30;82.76;99614.72;4990166;28;20037;-72
2023/12/16 05:00:58;;;;;;;0.90;0.90;;;;;;;4.28;82.67;99613.13;4993619;28;20042;-72
2023/12/16 05:03:25;;;;;;;0.98;0.98;;;;;;;4.29;82.84;99606.91;4981848;28;20042;-70
2023/12/16 05:05:53;;;;;;;1.05;1.05;;;;;;;4.31;82.69;99634.06;4994299;28;20122;-69
2023/12/16 05:08:21;;;;;;;0.93;0.93;;;;;;;4.29;82.64;99622.75;4996804;28;20038;-70
2023/12/16 05:10:48;;;;;;;1.30;1.30;;;;;;;4.33;82.66;99621.59;4988976;28;20070;-69
2023/12/16 05:13:16;;;;;;;0.85;0.85;;;;;;;4.33;82.62;99611.03;4989659;28;20137;-70
2023/12/16 05:15:44;;;;;;;0.95;0.95;;;;;;;4.32;82.49;99625.19;4994052;28;20085;-70
2023/12/16 05:18:13;;;;;;;0.88;0.88;;;;;;;4.32;82.21;99626.03;4996046;28;20059;-70
2023/12/16 05:20:41;;;;;;;1.17;1.17;;;;;;;4.32;82.37;99628.69;4986050;28;20050;-69
2023/12/16 05:23:09;;;;;;;1.05;1.05;;;;;;;4.31;82.69;99632.28;4992799;28;20047;-70
2023/12/16 05:25:37;;;;;;;0.85;0.85;;;;;;;4.32;82.95;99636.63;4993521;28;20121;-70
2023/12/16 05:28:04;;;;;;;0.95;0.95;;;;;;;4.30;82.68;99633.22;4993084;28;20117;-70
2023/12/16 05:30:32;;;;;;;1.23;1.23;;;;;;;4.35;82.82;99635.56;4998565;28;20035;-70
2023/12/16 05:33:00;;;;;;;1.00;1.00;;;;;;;4.35;82.43;99640.84;4987135;28;20565;-70
2023/12/16 05:35:29;;;;;;;1.00;1.00;;;;;;;4.34;82.89;99647.09;4990849;28;20116;-72
2023/12/16 05:37:56;;;;;;;1.23;1.23;;;;;;;4.29;82.49;99630.69;4993693;28;20117;-70
2023/12/16 05:40:24;;;;;;;1.08;1.08;;;;;;;4.30;82.46;99630.59;4993844;28;20038;-71
2023/12/16 05:42:51;;;;;;;1.05;1.05;;;;;;;4.31;82.60;99632.28;5001715;28;20358;-69
2023/12/16 05:45:19;;;;;;;1.25;1.25;;;;;;;4.31;82.71;99636.72;4986094;28;20399;-69
2023/12/16 05:47:47;;;;;;;1.00;1.00;;;;;;;4.30;82.70;99632.38;4996506;28;20042;-69
2023/12/16 05:50:14;;;;;;;1.15;1.15;;;;;;;4.30;82.89;99635.03;4993300;28;20049;-70
2023/12/16 05:52:43;;;;;;;1.00;1.00;;;;;;;4.29;82.95;99636.81;4997278;28;20583;-69
2023/12/16 05:55:11;;;;;;;1.13;1.13;;;;;;;4.29;83.19;99633.31;4997618;28;20496;-69
2023/12/16 05:57:39;;;;;;;1.10;1.10;;;;;;;4.31;83.10;99634.06;4989805;28;20129;-70
2023/12/16 06:00:08;;;;;;;1.10;1.10;;;;;;;4.30;83.14;99645.59;4993050;28;20042;-71
2023/12/16 06:02:36;;;;;;;0.90;0.90;;;;;;;4.36;83.19;99653.13;4995940;28;20104;-70
2023/12/16 06:05:04;;;;;;;0.77;0.77;;;;;;;4.37;82.94;99641.56;4999689;28;20042;-70
2023/12/16 06:07:32;;;;;;;0.95;0.95;;;;;;;4.34;83.05;99647.94;4997884;28;20054;-69
2023/12/16 06:10:01;;;;;;;0.95;0.95;;;;;;;4.32;83.05;99647.19;4998006;28;20042;-69
2023/12/16 06:12:34;;;;;;;1.52;1.52;;;;;;;4.33;83.12;99646.25;4993131;28;20082;-69
2023/12/16 06:15:01;;;;;;;0.98;0.98;;;;;;;4.31;83.20;99652.56;4994914;28;20043;-69
2023/12/16 06:17:29;;;;;;;1.02;1.02;;;;;;;4.32;83.28;99652.47;4988886;28;20463;-69
2023/12/16 06:19:57;;;;;;;0.90;0.90;;;;;;;4.31;83.11;99649.94;5001037;28;20038;-75
2023/12/16 06:22:24;;;;;;;1.48;1.48;;;;;;;4.30;83.27;99654.38;4993533;28;20050;-69
2023/12/16 06:24:52;;;;;;;1.00;1.00;;;;;;;4.31;83.35;99661.34;5004008;28;20104;-70
2023/12/16 06:27:21;;;;;;;0.43;0.43;;;;;;;4.29;83.55;99659.75;4994841;28;21162;-70
2023/12/16 06:29:48;;;;;;;1.33;1.33;;;;;;;4.29;83.36;99662.41;4997044;28;20497;-70
2023/12/16 06:32:16;;;;;;;0.50;0.50;;;;;;;4.28;83.60;99660.72;4994473;28;20407;-71
2023/12/16 06:34:46;;;;;;;1.00;1.00;;;;;;;4.25;83.54;99660.94;4993135;28;20043;-71
2023/12/16 06:37:13;;;;;;;1.10;1.10;;;;;;;4.28;83.67;99666.00;4995601;28;20129;-70
2023/12/16 06:39:41;;;;;;;0.80;0.80;;;;;;;4.26;83.77;99665.25;4992993;28;20038;-71
2023/12/16 06:42:09;;;;;;;0.95;0.95;;;;;;;4.27;83.79;99661.66;5002236;28;20495;-70
2023/12/16 06:44:38;;;;;;;0.47;0.47;;;;;;;4.25;84.08;99671.50;4994008;28;20433;-70
2023/12/16 06:47:05;;;;;;;1.13;1.13;;;;;;;4.24;84.03;99675.09;4998456;28;20057;-70
2023/12/16 06:49:33;;;;;;;0.95;0.95;;;;;;;4.26;83.95;99673.16;4994314;28;20562;-69
2023/12/16 06:52:01;;;;;;;1.55;1.55;;;;;;;4.31;84.03;99681.66;4993354;28;20065;-72
2023/12/16 06:54:28;;;;;;;1.13;1.13;;;;;;;4.27;84.05;99678.34;4995951;28;20088;-70
2023/12/16 06:56:56;;;;;;;1.35;1.35;;;;;;;4.27;84.09;99685.44;4996850;28;20100;-69
2023/12/16 06:59:24;;;;;;;0.93;0.93;;;;;;;4.26;84.25;99695.16;4996901;28;20041;-70
2023/12/16 07:01:53;;;;;;;1.20;1.20;;;;;;;4.27;84.25;99701.28;4998615;28;20077;-70
2023/12/16 07:04:20;;;;;;;1.05;1.05;;;;;;;4.28;84.26;99692.41;4992304;28;20498;-70
2023/12/16 07:06:48;;;;;;;0.95;0.95;;;;;;;4.28;84.15;99682.69;4993715;28;20038;-70
2023/12/16 07:09:15;;;;;;;0.95;0.95;;;;;;;4.29;84.15;99684.41;4992411;28;20073;-69
2023/12/16 07:11:43;;;;;;;1.38;1.38;;;;;;;4.27;84.09;99683.66;4998212;28;20466;-70
2023/12/16 07:14:11;;;;;;;1.30;1.30;;;;;;;4.26;84.30;99692.53;5000081;28;20050;-70
2023/12/16 07:16:38;;;;;;;1.00;1.00;;;;;;;4.28;84.28;99695.91;4991572;28;20046;-70
2023/12/16 07:19:08;;;;;;;1.23;1.23;;;;;;;4.29;84.45;99702.03;4989572;28;20080;-70
2023/12/16 07:21:35;;;;;;;0.88;0.88;;;;;;;4.29;84.59;99699.41;4992613;28;20588;-70
2023/12/16 07:24:03;;;;;;;1.00;1.00;;;;;;;4.27;84.58;99703.94;4993288;28;20058;-71
2023/12/16 07:26:31;;;;;;;1.30;1.25;;;;;;;4.30;84.32;99701.09;5004251;28;20049;-70
2023/12/16 07:28:59;;;;;;;1.20;1.20;;;;;;;4.29;84.62;99700.25;4991805;28;20498;-70
2023/12/16 07:31:27;;;;;;;1.05;1.05;;;;;;;4.31;84.49;99710.72;4996612;28;20050;-70
2023/12/16 07:33:54;;;;;;;1.02;1.02;;;;;;;4.27;84.67;99712.72;4992691;28;20050;-72
2023/12/16 07:36:23;;;;;;;1.00;1.00;;;;;;;4.30;84.73;99711.66;4986707;28;20045;-72
2023/12/16 07:38:51;;;;;;;0.90;0.90;;;;;;;4.30;84.74;99712.53;4984237;28;20129;-69
2023/12/16 07:41:19;;;;;;;1.95;1.95;;;;;;;4.27;84.93;99719.78;4996600;28;20501;-70
2023/12/16 07:43:46;;;;;;;1.55;1.45;;;;;;;4.29;84.94;99725.84;4997571;28;20045;-69
2023/12/16 07:46:14;;;;;;;1.42;1.42;;;;;;;4.34;84.82;99726.38;4991836;28;20047;-70
2023/12/16 07:48:42;;;;;;;1.10;1.10;;;;;;;4.34;84.74;99732.53;4990088;28;20057;-70
2023/12/16 07:51:15;;;;;;;1.52;1.52;;;;;;;4.31;84.77;99734.50;4974997;28;20073;-69
2023/12/16 07:53:46;;;;;;;1.38;1.38;;;;;;;4.28;85.07;99746.13;4991041;28;20133;-69
2023/12/16 07:56:17;;;;;;;1.15;1.15;;;;;;;4.29;84.83;99753.09;4985258;28;20077;-69
2023/12/16 07:58:45;;;;;;;1.13;1.13;;;;;;;4.33;85.05;99744.03;4984571;28;20047;-70
2023/12/16 08:01:13;;;;;;;1.13;1.13;;;;;;;4.34;84.76;99743.09;4991337;28;20043;-69
2023/12/16 08:03:41;;;;;;;1.17;1.17;;;;;;;4.36;84.67;99741.16;4986508;28;20125;-71
2023/12/16 08:06:09;;;;;;;0.50;0.50;;;;;;;4.37;84.69;99737.59;4988724;28;20411;-71
2023/12/16 08:08:38;;;;;;;1.13;1.13;;;;;;;4.37;84.74;99739.38;4989260;28;20038;-72
2023/12/16 08:11:07;;;;;;;1.48;1.38;;;;;;;4.40;84.45;99734.75;4991047;28;20053;-70
2023/12/16 08:13:36;;;;;;;1.17;1.17;;;;;;;4.41;84.55;99738.22;4984801;28;20042;-71
2023/12/16 08:16:04;;;;;;;1.27;1.27;;;;;;;4.46;84.34;99757.28;4986901;28;20050;-70
2023/12/16 08:18:32;;;;;;;1.17;1.17;;;;;;;4.44;84.09;99759.19;4991257;28;20080;-72
2023/12/16 08:21:00;;;;;;;1.05;1.05;;;;;;;4.47;83.86;99766.88;4981795;28;20088;-71
2023/12/16 08:23:28;;;;;;;1.10;1.10;;;;;;;4.48;83.90;99765.94;4990659;28;20128;-71
2023/12/16 08:25:55;;;;;;;1.10;1.10;;;;;;;4.49;83.44;99769.44;4991731;28;20125;-71
2023/12/16 08:28:24;;;;;;;0.90;0.90;;;;;;;4.50;83.05;99769.34;4989443;28;20046;-71
2023/12/16 08:30:53;;;;;;;1.02;1.02;;;;;;;4.51;83.31;99760.47;4985125;28;20133;-71
2023/12/16 08:33:21;;;;;;;1.10;1.10;;;;;;;4.53;83.24;99763.00;4989893;28;20046;-72
2023/12/16 08:35:49;;;;;;;1.17;1.17;;;;;;;4.52;83.23;99753.38;4999954;28;20053;-72
2023/12/16 08:38:16;;;;;;;1.60;1.52;;;;;;;4.56;83.88;99762.81;4990934;28;20069;-72
2023/12/16 08:40:45;;;;;;;1.98;1.98;;;;;;;4.57;83.09;99762.69;4993210;28;20042;-73
2023/12/16 08:43:12;;;;;;;1.00;1.00;;;;;;;4.65;83.23;99760.38;4996759;28;20074;-71
2023/12/16 08:45:41;;;;;;;0.82;0.82;;;;;;;4.61;83.05;99752.75;4988030;28;20118;-73
2023/12/16 08:48:09;;;;;;;0.38;0.38;;;;;;;4.61;83.33;99758.03;4992735;28;20415;-72
2023/12/16 08:50:37;;;;;;;0.98;0.98;;;;;;;4.60;82.90;99754.56;4990941;28;20038;-71
2023/12/16 08:53:08;;;;;;;1.05;1.05;;;;;;;4.65;82.67;99755.09;4997387;28;20038;-72
2023/12/16 08:55:35;;;;;;;1.20;1.20;;;;;;;4.63;82.58;99753.50;4990187;28;20141;-71
2023/12/16 08:58:03;;;;;;;1.10;1.10;;;;;;;4.65;81.79;99749.81;4992302;28;20074;-71
2023/12/16 09:00:31;;;;;;;0.98;0.98;;;;;;;4.68;81.76;99759.31;4997585;28;20100;-71
2023/12/16 09:03:00;;;;;;;0.90;0.90;;;;;;;4.78;81.40;99752.44;4994088;28;20061;-73
2023/12/16 09:05:28;;;;;;;0.98;0.98;;;;;;;4.79;80.67;99747.06;4990391;28;20491;-71
2023/12/16 09:07:56;;;;;;;1.13;1.13;;;;;;;4.83;80.38;99760.94;4989230;28;20105;-71
2023/12/16 09:10:23;;;;;;;1.23;1.23;;;;;;;4.85;80.17;99764.31;4991904;28;20042;-71
2023/12/16 09:12:51;;;;;;;1.15;1.15;;;;;;;4.87;80.31;99775.66;4990478;28;20047;-71
2023/12/16 09:15:19;;;;;;;1.05;1.05;;;;;;;4.87;80.48;99780.94;4991172;28;20050;-72
2023/12/16 09:17:47;;;;;;;0.40;0.40;;;;;;;4.95;80.60;99783.06;4995329;28;20419;-71
2023/12/16 09:20:16;;;;;;;1.27;1.27;;;;;;;4.99;80.45;99774.78;4992346;28;20069;-72
2023/12/16 09:22:44;;;;;;;1.02;1.02;;;;;;;5.01;79.94;99762.31;4991783;28;20050;-71
2023/12/16 09:25:12;;;;;;;0.45;0.45;;;;;;;5.04;79.68;99771.84;4999549;28;20474;-71
2023/12/16 09:27:41;;;;;;;1.27;1.27;;;;;;;5.08;80.15;99773.34;4990249;28;20447;-72
2023/12/16 09:30:09;;;;;;;1.27;1.27;;;;;;;5.07;80.05;99779.56;4979331;28;20042;-71
2023/12/16 09:32:37;;;;;;;1.02;1.02;;;;;;;5.12;80.60;99777.44;4994731;28;20054;-71
2023/12/16 09:35:06;;;;;;;0.70;0.70;;;;;;;5.20;80.17;99785.69;4988279;28;20054;-71
2023/12/16 09:37:35;;;;;;;0.88;0.88;;;;;;;5.18;79.28;99784.13;4991824;28;20046;-72
2023/12/16 09:40:04;;;;;;;1.60;1.60;;;;;;;5.17;78.57;99783.28;4990365;28;20038;-72
2023/12/16 09:42:35;;;;;;;1.00;1.00;;;;;;;5.21;79.33;99778.59;4993020;28;20042;-72
2023/12/16 09:45:04;;;;;;;0.40;0.40;;;;;;;5.24;78.87;99766.00;4991326;28;20420;-71
2023/12/16 09:47:32;;;;;;;0.85;0.85;;;;;;;5.28;78.95;99764.84;5002622;28;20125;-71
2023/12/16 09:49:59;;;;;;;1.17;1.17;;;;;;;5.37;78.86;99761.56;4997342;28;20057;-70
2023/12/16 09:52:27;;;;;;;0.90;0.90;;;;;;;5.39;78.45;99750.84;4999006;28;20046;-71
2023/12/16 09:54:56;;;;;;;0.90;0.90;;;;;;;5.46;78.20;99757.41;4970849;28;20395;-71
2023/12/16 09:57:24;;;;;;;0.90;0.90;;;;;;;5.51;77.80;99758.75;4993518;28;20046;-71
2023/12/16 09:59:52;;;;;;;1.25;1.25;;;;;;;5.61;77.32;99760.75;4993396;28;20073;-71
2023/12/16 10:02:22;;;;;;;1.25;1.25;;;;;;;5.58;76.33;99753.03;4985767;28;20142;-71
2023/12/16 10:04:51;;;;;;;1.23;1.23;;;;;;;5.57;76.21;99748.69;4988320;28;20101;-71
2023/12/16 10:07:19;;;;;;;1.08;1.08;;;;;;;5.54;75.86;99742.66;4991771;28;20061;-71
2023/12/16 10:09:47;;;;;;;0.98;0.98;;;;;;;5.52;76.07;99736.63;4991729;28;20044;-71
2023/12/16 10:12:16;;;;;;;1.25;1.25;;;;;;;5.56;76.20;99747.00;4992649;28;20046;-71
2023/12/16 10:14:47;;;;;;;1.05;1.05;;;;;;;5.59;76.08;99741.50;4986397;28;20050;-70
2023/12/16 10:17:16;;;;;;;1.02;1.02;;;;;;;5.57;75.23;99732.81;4983550;28;20057;-71
2023/12/16 10:19:44;;;;;;;0.95;0.95;;;;;;;5.58;76.08;99731.84;4990763;28;20506;-72
2023/12/16 10:22:13;;;;;;;1.08;1.08;;;;;;;5.65;75.60;99719.84;4993246;28;20042;-72
2023/12/16 10:24:42;;;;;;;1.27;1.27;;;;;;;5.67;75.67;99717.94;4993259;28;20097;-71
2023/12/16 10:27:11;;;;;;;1.15;1.15;;;;;;;5.66;74.27;99701.19;4985441;28;20043;-70
2023/12/16 10:29:41;;;;;;;1.48;1.48;;;;;;;5.73;74.74;99706.88;4990141;28;20050;-72
2023/12/16 10:32:26;;;;;;;0.95;0.95;;;;;;;5.74;74.16;99701.47;4989999;28;20189;-72
2023/12/16 10:34:55;;;;;;;1.10;1.10;;;;;;;5.83;74.15;99707.91;4990957;28;20046;-70
2023/12/16 10:37:23;;;;;;;1.13;1.13;;;;;;;5.96;74.05;99723.78;4992707;28;20039;-71
2023/12/16 10:39:51;;;;;;;1.13;1.13;;;;;;;6.00;73.10;99719.97;4989868;28;20046;-71
2023/12/16 10:42:19;;;;;;;1.08;1.08;;;;;;;6.02;73.44;99726.00;4992376;28;20072;-72
2023/12/16 10:44:49;;;;;;;0.88;0.88;;;;;;;6.01;72.55;99727.81;4989209;28;20057;-72
2023/12/16 10:47:18;;;;;;;0.90;0.90;;;;;;;6.02;72.46;99718.88;4993347;28;20049;-71
2023/12/16 10:49:46;;;;;;;1.23;1.23;;;;;;;6.07;72.78;99715.88;5000459;28;20050;-71
2023/12/16 10:52:16;;;;;;;0.77;0.77;;;;;;;6.08;73.08;99723.75;4992559;28;20039;-71
2023/12/16 10:54:45;;;;;;;0.80;0.80;;;;;;;6.18;71.96;99723.91;4995406;28;20041;-71
2023/12/16 10:57:19;;;;;;;0.90;0.90;;;;;;;6.18;71.46;99718.59;4992682;28;20051;-71
2023/12/16 10:59:59;;;;;;;0.80;0.80;;;;;;;6.35;71.51;99712.88;4995224;28;20045;-71
2023/12/16 11:02:28;;;;;;;1.15;1.15;;;;;;;6.42;70.63;99710.63;5001687;28;20134;-71
2023/12/16 11:05:01;;;;;;;0.82;0.82;;;;;;;6.38;70.45;99698.53;4992815;28;20046;-74
2023/12/16 11:07:29;;;;;;;0.70;0.70;;;;;;;6.38;70.19;99701.19;4994353;28;20365;-72
2023/12/16 11:09:59;;;;;;;1.10;1.10;;;;;;;6.32;70.42;99691.91;4995662;28;20062;-74
2023/12/16 11:12:26;;;;;;;1.10;1.10;;;;;;;6.37;70.90;99679.13;4988211;28;20407;-75
2023/12/16 11:14:55;;;;;;;1.20;1.20;;;;;;;6.37;70.23;99679.13;4991751;28;20043;-75
2023/12/16 11:17:30;;;;;;;1.40;1.40;;;;;;;6.45;70.73;99662.63;4987997;28;20047;-73
2023/12/16 11:20:01;;;;;;;1.00;1.00;;;;;;;6.49;71.00;99666.75;4998608;28;20055;-75
2023/12/16 11:22:28;;;;;;;1.13;1.13;;;;;;;6.52;70.84;99661.22;4991856;28;20039;-75
2023/12/16 11:24:57;;;;;;;1.10;1.10;;;;;;;6.49;70.59;99651.66;4988634;28;20034;-75
2023/12/16 11:27:27;;;;;;;1.33;1.33;;;;;;;6.56;71.13;99657.34;4992126;28;20046;-75
2023/12/16 11:29:56;;;;;;;1.00;1.00;;;;;;;6.64;70.66;99668.22;4996208;28;20046;-76
2023/12/16 11:32:24;;;;;;;0.82;0.82;;;;;;;6.60;70.39;99659.66;4989114;28;20046;-74
2023/12/16 11:34:54;;;;;;;0.85;0.85;;;;;;;6.69;70.40;99657.25;4992112;28;20109;-74
2023/12/16 11:37:44;;;;;;;0.43;0.43;;;;;;;6.73;70.25;99654.25;4994648;28;20416;-73
2023/12/16 11:40:39;;;;;;;0.75;0.75;;;;;;;6.73;69.78;99667.50;4985722;28;20527;-75
2023/12/16 11:43:07;;;;;;;0.80;0.80;;;;;;;6.67;70.72;99657.34;4979748;28;20050;-76
2023/12/16 11:45:39;;;;;;;0.98;0.98;;;;;;;6.76;70.86;99655.78;4992997;28;20046;-75
2023/12/16 11:48:08;;;;;;;0.98;0.98;;;;;;;6.68;70.18;99643.13;4993839;28;20054;-75